sensor_id;sensor_type;location;lat;lon;timestamp;pressure;altitude;pressure_sealevel;temperature;humidity
44872;BME280;30602;51.060;17.226;2022-08-01T00:01:37;101304.15;;;14.06;90.00
44872;BME280;30602;51.060;17.226;2022-08-01T00:05:07;101303.94;;;14.01;89.89
44872;BME280;30602;51.060;17.226;2022-08-01T00:08:50;101305.93;;;13.98;90.35
44872;BME280;30602;51.060;17.226;2022-08-01T00:11:57;101301.14;;;13.89;90.13
44872;BME280;30602;51.060;17.226;2022-08-01T00:15:08;101300.08;;;13.80;90.33
44872;BME280;30602;51.060;17.226;2022-08-01T00:18:35;101305.21;;;13.83;90.16
44872;BME280;30602;51.060;17.226;2022-08-01T00:21:42;101299.99;;;13.77;90.17
44872;BME280;30602;51.060;17.226;2022-08-01T00:25:11;101284.59;;;13.67;89.70
44872;BME280;30602;51.060;17.226;2022-08-01T00:28:38;101295.57;;;13.68;90.52
44872;BME280;30602;51.060;17.226;2022-08-01T00:32:31;101298.08;;;13.63;90.92
44872;BME280;30602;51.060;17.226;2022-08-01T00:36:12;101297.24;;;13.65;91.14
44872;BME280;30602;51.060;17.226;2022-08-01T00:39:38;101300.32;;;13.60;90.94
44872;BME280;30602;51.060;17.226;2022-08-01T00:43:18;101303.42;;;13.54;90.90
44872;BME280;30602;51.060;17.226;2022-08-01T00:46:37;101298.80;;;13.48;89.81
44872;BME280;30602;51.060;17.226;2022-08-01T00:50:19;101292.99;;;13.41;90.14
44872;BME280;30602;51.060;17.226;2022-08-01T00:53:52;101289.65;;;13.35;90.46
44872;BME280;30602;51.060;17.226;2022-08-01T00:58:17;101275.30;;;13.24;90.58
44872;BME280;30602;51.060;17.226;2022-08-01T01:02:07;101282.38;;;13.18;90.37
44872;BME280;30602;51.060;17.226;2022-08-01T01:06:23;101284.45;;;13.19;90.88
44872;BME280;30602;51.060;17.226;2022-08-01T01:09:39;101280.91;;;13.24;91.20
44872;BME280;30602;51.060;17.226;2022-08-01T01:13:41;101279.48;;;13.26;91.56
44872;BME280;30602;51.060;17.226;2022-08-01T01:17:06;101279.60;;;13.27;93.08
44872;BME280;30602;51.060;17.226;2022-08-01T01:32:39;101261.29;;;13.21;94.50
44872;BME280;30602;51.060;17.226;2022-08-01T01:35:57;101271.23;;;13.27;94.13
44872;BME280;30602;51.060;17.226;2022-08-01T01:39:27;101268.02;;;13.22;93.62
44872;BME280;30602;51.060;17.226;2022-08-01T01:42:53;101251.80;;;13.03;93.84
44872;BME280;30602;51.060;17.226;2022-08-01T01:46:09;101265.37;;;13.21;94.26
44872;BME280;30602;51.060;17.226;2022-08-01T01:49:55;101262.40;;;13.19;94.44
44872;BME280;30602;51.060;17.226;2022-08-01T01:53:58;101258.84;;;13.24;94.97
44872;BME280;30602;51.060;17.226;2022-08-01T01:57:28;101253.73;;;13.24;94.82
44872;BME280;30602;51.060;17.226;2022-08-01T02:00:48;101249.30;;;13.13;94.07
44872;BME280;30602;51.060;17.226;2022-08-01T02:04:16;101249.58;;;13.16;94.73
44872;BME280;30602;51.060;17.226;2022-08-01T02:07:25;101254.29;;;13.16;94.91
44872;BME280;30602;51.060;17.226;2022-08-01T02:10:36;101248.97;;;13.14;95.39
44872;BME280;30602;51.060;17.226;2022-08-01T02:14:18;101247.32;;;13.21;95.92
44872;BME280;30602;51.060;17.226;2022-08-01T02:17:43;101243.71;;;13.31;96.07
44872;BME280;30602;51.060;17.226;2022-08-01T02:21:05;101246.60;;;13.39;95.91
44872;BME280;30602;51.060;17.226;2022-08-01T02:24:33;101250.52;;;13.32;95.95
44872;BME280;30602;51.060;17.226;2022-08-01T02:31:20;101251.20;;;13.39;95.55
44872;BME280;30602;51.060;17.226;2022-08-01T02:34:54;101244.50;;;13.38;95.23
44872;BME280;30602;51.060;17.226;2022-08-01T02:38:06;101244.10;;;13.35;95.34
44872;BME280;30602;51.060;17.226;2022-08-01T02:41:42;101244.72;;;13.32;95.16
44872;BME280;30602;51.060;17.226;2022-08-01T02:44:55;101247.01;;;13.30;95.14
44872;BME280;30602;51.060;17.226;2022-08-01T02:48:36;101250.40;;;13.27;95.38
44872;BME280;30602;51.060;17.226;2022-08-01T02:51:47;101245.15;;;13.34;95.30
44872;BME280;30602;51.060;17.226;2022-08-01T02:55:39;101247.59;;;13.30;95.31
44872;BME280;30602;51.060;17.226;2022-08-01T02:59:22;101249.26;;;13.38;94.80
44872;BME280;30602;51.060;17.226;2022-08-01T03:02:58;101252.16;;;13.38;94.71
44872;BME280;30602;51.060;17.226;2022-08-01T03:06:19;101248.47;;;13.37;94.81
44872;BME280;30602;51.060;17.226;2022-08-01T03:10:11;101208.01;;;13.10;95.61
44872;BME280;30602;51.060;17.226;2022-08-01T03:13:54;101253.07;;;13.44;96.39
44872;BME280;30602;51.060;17.226;2022-08-01T03:17:05;101257.07;;;13.51;96.84
44872;BME280;30602;51.060;17.226;2022-08-01T03:20:34;101251.63;;;13.45;96.74
44872;BME280;30602;51.060;17.226;2022-08-01T03:24:15;101252.32;;;13.57;96.78
44872;BME280;30602;51.060;17.226;2022-08-01T03:27:59;101254.15;;;13.63;96.57
44872;BME280;30602;51.060;17.226;2022-08-01T03:31:22;101254.76;;;13.74;97.01
44872;BME280;30602;51.060;17.226;2022-08-01T03:34:54;101251.80;;;13.81;97.62
44872;BME280;30602;51.060;17.226;2022-08-01T03:38:21;101248.57;;;13.93;97.69
44872;BME280;30602;51.060;17.226;2022-08-01T03:41:58;101230.97;;;13.94;97.89
44872;BME280;30602;51.060;17.226;2022-08-01T03:45:30;101244.91;;;13.99;98.32
44872;BME280;30602;51.060;17.226;2022-08-01T03:48:55;101248.41;;;14.03;98.56
44872;BME280;30602;51.060;17.226;2022-08-01T03:52:28;101239.16;;;14.15;98.70
44872;BME280;30602;51.060;17.226;2022-08-01T03:56:08;101248.21;;;14.29;98.83
44872;BME280;30602;51.060;17.226;2022-08-01T03:59:47;101249.33;;;14.36;98.72
44872;BME280;30602;51.060;17.226;2022-08-01T04:02:55;101248.99;;;14.45;97.84
44872;BME280;30602;51.060;17.226;2022-08-01T04:06:24;101247.85;;;14.48;97.49
44872;BME280;30602;51.060;17.226;2022-08-01T04:09:59;101253.35;;;14.59;96.31
44872;BME280;30602;51.060;17.226;2022-08-01T04:13:29;101254.34;;;14.67;96.69
44872;BME280;30602;51.060;17.226;2022-08-01T04:17:29;101255.35;;;14.79;97.08
44872;BME280;30602;51.060;17.226;2022-08-01T04:20:59;101257.77;;;14.94;95.89
44872;BME280;30602;51.060;17.226;2022-08-01T04:24:15;101262.10;;;14.98;96.42
44872;BME280;30602;51.060;17.226;2022-08-01T04:27:30;101264.55;;;15.02;96.82
44872;BME280;30602;51.060;17.226;2022-08-01T04:30:44;101264.77;;;15.01;97.05
44872;BME280;30602;51.060;17.226;2022-08-01T04:34:27;101263.05;;;14.99;96.48
44872;BME280;30602;51.060;17.226;2022-08-01T04:38:09;101259.20;;;15.00;95.79
44872;BME280;30602;51.060;17.226;2022-08-01T04:41:47;101257.33;;;15.06;96.05
44872;BME280;30602;51.060;17.226;2022-08-01T04:44:58;101250.20;;;15.16;95.09
44872;BME280;30602;51.060;17.226;2022-08-01T04:48:37;101250.16;;;15.16;94.24
44872;BME280;30602;51.060;17.226;2022-08-01T04:52:16;101252.94;;;15.19;94.56
44872;BME280;30602;51.060;17.226;2022-08-01T04:55:50;101252.28;;;15.23;94.96
44872;BME280;30602;51.060;17.226;2022-08-01T04:58:57;101257.70;;;15.19;95.16
44872;BME280;30602;51.060;17.226;2022-08-01T05:02:31;101258.03;;;15.20;95.16
44872;BME280;30602;51.060;17.226;2022-08-01T05:05:53;101255.55;;;15.19;95.23
44872;BME280;30602;51.060;17.226;2022-08-01T05:09:23;101260.33;;;15.19;94.02
44872;BME280;30602;51.060;17.226;2022-08-01T05:13:19;101264.26;;;15.32;93.67
44872;BME280;30602;51.060;17.226;2022-08-01T05:16:38;101263.67;;;15.34;92.71
44872;BME280;30602;51.060;17.226;2022-08-01T05:19:53;101262.80;;;15.32;93.04
44872;BME280;30602;51.060;17.226;2022-08-01T05:23:19;101261.36;;;15.29;93.37
44872;BME280;30602;51.060;17.226;2022-08-01T05:26:32;101264.01;;;15.26;93.58
44872;BME280;30602;51.060;17.226;2022-08-01T05:30:17;101261.77;;;15.24;94.03
44872;BME280;30602;51.060;17.226;2022-08-01T05:33:39;101259.23;;;15.30;93.83
44872;BME280;30602;51.060;17.226;2022-08-01T05:37:38;101255.71;;;15.37;93.67
44872;BME280;30602;51.060;17.226;2022-08-01T05:40:45;101247.90;;;15.52;93.15
44872;BME280;30602;51.060;17.226;2022-08-01T05:44:12;101249.50;;;15.51;93.06
44872;BME280;30602;51.060;17.226;2022-08-01T05:48:04;101251.40;;;15.55;93.65
44872;BME280;30602;51.060;17.226;2022-08-01T05:51:53;101251.82;;;15.63;93.63
44872;BME280;30602;51.060;17.226;2022-08-01T05:55:14;101250.05;;;15.74;93.43
44872;BME280;30602;51.060;17.226;2022-08-01T05:58:23;101241.63;;;15.72;93.45
44872;BME280;30602;51.060;17.226;2022-08-01T06:01:48;101249.94;;;15.83;92.97
44872;BME280;30602;51.060;17.226;2022-08-01T06:05:04;101249.19;;;15.92;93.19
44872;BME280;30602;51.060;17.226;2022-08-01T06:08:12;101255.27;;;15.97;93.64
44872;BME280;30602;51.060;17.226;2022-08-01T06:12:06;101257.03;;;15.96;93.55
44872;BME280;30602;51.060;17.226;2022-08-01T06:15:32;101256.12;;;16.02;93.61
44872;BME280;30602;51.060;17.226;2022-08-01T06:18:37;101258.03;;;16.04;94.08
44872;BME280;30602;51.060;17.226;2022-08-01T06:22:02;101256.79;;;16.11;94.73
44872;BME280;30602;51.060;17.226;2022-08-01T06:25:43;101259.97;;;16.19;94.63
44872;BME280;30602;51.060;17.226;2022-08-01T06:29:37;101260.52;;;16.41;95.29
44872;BME280;30602;51.060;17.226;2022-08-01T06:33:04;101263.20;;;16.58;94.53
44872;BME280;30602;51.060;17.226;2022-08-01T06:36:45;101265.41;;;16.69;95.17
44872;BME280;30602;51.060;17.226;2022-08-01T06:40:00;101262.69;;;16.77;93.84
44872;BME280;30602;51.060;17.226;2022-08-01T06:43:38;101267.76;;;16.88;93.49
44872;BME280;30602;51.060;17.226;2022-08-01T06:50:56;101256.66;;;17.27;92.56
44872;BME280;30602;51.060;17.226;2022-08-01T06:54:49;101259.70;;;17.44;91.69
44872;BME280;30602;51.060;17.226;2022-08-01T06:57:59;101257.51;;;17.60;91.99
44872;BME280;30602;51.060;17.226;2022-08-01T07:01:06;101259.80;;;17.68;92.01
44872;BME280;30602;51.060;17.226;2022-08-01T07:04:13;101259.72;;;17.77;91.38
44872;BME280;30602;51.060;17.226;2022-08-01T07:07:48;101260.68;;;17.84;90.45
44872;BME280;30602;51.060;17.226;2022-08-01T07:11:30;101260.74;;;18.06;90.63
44872;BME280;30602;51.060;17.226;2022-08-01T07:15:11;101255.89;;;18.27;89.36
44872;BME280;30602;51.060;17.226;2022-08-01T07:18:41;101256.32;;;18.58;89.20
44872;BME280;30602;51.060;17.226;2022-08-01T07:22:10;101256.87;;;18.88;88.50
44872;BME280;30602;51.060;17.226;2022-08-01T07:25:43;101256.45;;;19.08;86.12
44872;BME280;30602;51.060;17.226;2022-08-01T07:29:09;101257.35;;;19.37;84.85
44872;BME280;30602;51.060;17.226;2022-08-01T07:32:17;101255.08;;;19.59;82.58
44872;BME280;30602;51.060;17.226;2022-08-01T07:35:23;101253.27;;;19.78;81.65
44872;BME280;30602;51.060;17.226;2022-08-01T07:38:47;101255.70;;;19.91;80.13
44872;BME280;30602;51.060;17.226;2022-08-01T07:42:14;101257.73;;;20.02;80.19
44872;BME280;30602;51.060;17.226;2022-08-01T07:45:42;101237.38;;;20.00;78.92
44872;BME280;30602;51.060;17.226;2022-08-01T07:48:51;101245.24;;;20.16;78.49
44872;BME280;30602;51.060;17.226;2022-08-01T07:52:29;101252.72;;;20.36;79.21
44872;BME280;30602;51.060;17.226;2022-08-01T07:55:49;101249.23;;;20.53;77.36
44872;BME280;30602;51.060;17.226;2022-08-01T07:58:56;101242.33;;;20.89;76.40
44872;BME280;30602;51.060;17.226;2022-08-01T08:02:28;101243.61;;;21.15;74.95
44872;BME280;30602;51.060;17.226;2022-08-01T08:05:38;101240.45;;;21.37;73.97
44872;BME280;30602;51.060;17.226;2022-08-01T08:09:05;101242.85;;;21.56;72.99
44872;BME280;30602;51.060;17.226;2022-08-01T08:12:16;101243.41;;;21.89;71.64
44872;BME280;30602;51.060;17.226;2022-08-01T08:15:25;101225.67;;;21.89;67.19
44872;BME280;30602;51.060;17.226;2022-08-01T08:19:04;101241.44;;;22.15;65.76
44872;BME280;30602;51.060;17.226;2022-08-01T08:22:33;101245.07;;;22.22;63.88
44872;BME280;30602;51.060;17.226;2022-08-01T08:26:17;101244.38;;;22.19;64.31
44872;BME280;30602;51.060;17.226;2022-08-01T08:29:25;101252.82;;;22.24;64.45
44872;BME280;30602;51.060;17.226;2022-08-01T08:32:38;101255.63;;;22.22;64.11
44872;BME280;30602;51.060;17.226;2022-08-01T08:38:02;101256.58;;;22.39;64.55
44872;BME280;30602;51.060;17.226;2022-08-01T08:41:35;101253.82;;;22.55;64.54
44872;BME280;30602;51.060;17.226;2022-08-01T08:44:49;101254.41;;;22.72;61.33
44872;BME280;30602;51.060;17.226;2022-08-01T08:48:49;101251.02;;;22.95;61.40
44872;BME280;30602;51.060;17.226;2022-08-01T08:52:35;101259.76;;;23.13;60.76
44872;BME280;30602;51.060;17.226;2022-08-01T08:56:02;101261.41;;;23.13;60.48
44872;BME280;30602;51.060;17.226;2022-08-01T08:59:12;101272.08;;;23.11;59.73
44872;BME280;30602;51.060;17.226;2022-08-01T09:02:20;101269.55;;;23.13;60.89
44872;BME280;30602;51.060;17.226;2022-08-01T09:06:44;101263.68;;;23.15;60.84
44872;BME280;30602;51.060;17.226;2022-08-01T09:10:53;101278.63;;;23.20;60.28
44872;BME280;30602;51.060;17.226;2022-08-01T09:21:28;101280.58;;;23.12;63.34
44872;BME280;30602;51.060;17.226;2022-08-01T09:28:32;101279.16;;;22.99;62.70
44872;BME280;30602;51.060;17.226;2022-08-01T09:31:57;101275.11;;;22.91;61.77
44872;BME280;30602;51.060;17.226;2022-08-01T09:38:44;101281.08;;;22.99;63.53
44872;BME280;30602;51.060;17.226;2022-08-01T09:42:44;101282.72;;;23.06;62.83
44872;BME280;30602;51.060;17.226;2022-08-01T09:50:09;101287.52;;;23.03;62.46
44872;BME280;30602;51.060;17.226;2022-08-01T09:57:09;101286.12;;;23.17;63.53
44872;BME280;30602;51.060;17.226;2022-08-01T10:00:40;101283.08;;;23.18;61.64
44872;BME280;30602;51.060;17.226;2022-08-01T10:04:20;101280.36;;;23.42;62.35
44872;BME280;30602;51.060;17.226;2022-08-01T10:07:34;101277.62;;;23.45;61.61
44872;BME280;30602;51.060;17.226;2022-08-01T10:11:08;101273.77;;;23.45;61.04
44872;BME280;30602;51.060;17.226;2022-08-01T10:14:18;101271.64;;;23.59;60.22
44872;BME280;30602;51.060;17.226;2022-08-01T10:17:25;101269.68;;;23.80;60.28
44872;BME280;30602;51.060;17.226;2022-08-01T10:21:14;101267.32;;;24.02;58.43
44872;BME280;30602;51.060;17.226;2022-08-01T10:24:42;101270.90;;;24.04;57.71
44872;BME280;30602;51.060;17.226;2022-08-01T10:31:42;101268.35;;;24.22;57.72
44872;BME280;30602;51.060;17.226;2022-08-01T10:35:11;101265.68;;;24.19;57.03
44872;BME280;30602;51.060;17.226;2022-08-01T10:38:57;101262.01;;;24.19;57.21
44872;BME280;30602;51.060;17.226;2022-08-01T10:42:44;101263.05;;;24.41;56.60
44872;BME280;30602;51.060;17.226;2022-08-01T10:46:22;101256.12;;;24.33;57.46
44872;BME280;30602;51.060;17.226;2022-08-01T10:49:31;101256.94;;;24.18;56.63
44872;BME280;30602;51.060;17.226;2022-08-01T10:56:49;101250.83;;;24.72;57.74
44872;BME280;30602;51.060;17.226;2022-08-01T11:00:20;101248.37;;;24.90;55.93
44872;BME280;30602;51.060;17.226;2022-08-01T11:03:34;101253.63;;;24.93;55.85
44872;BME280;30602;51.060;17.226;2022-08-01T11:07:24;101258.13;;;24.97;57.35
44872;BME280;30602;51.060;17.226;2022-08-01T11:11:02;101252.98;;;25.22;55.89
44872;BME280;30602;51.060;17.226;2022-08-01T11:18:31;101249.80;;;25.06;55.61
44872;BME280;30602;51.060;17.226;2022-08-01T11:22:15;101254.95;;;25.24;55.62
44872;BME280;30602;51.060;17.226;2022-08-01T11:25:24;101250.93;;;25.24;54.57
44872;BME280;30602;51.060;17.226;2022-08-01T11:28:29;101250.75;;;25.21;56.50
44872;BME280;30602;51.060;17.226;2022-08-01T11:39:42;101241.13;;;25.22;56.12
44872;BME280;30602;51.060;17.226;2022-08-01T11:43:15;101242.63;;;25.32;57.75
44872;BME280;30602;51.060;17.226;2022-08-01T11:46:05;101244.64;;;25.31;56.73
44872;BME280;30602;51.060;17.226;2022-08-01T11:49:48;101244.01;;;25.17;56.28
44872;BME280;30602;51.060;17.226;2022-08-01T11:53:06;101248.30;;;25.17;57.69
44872;BME280;30602;51.060;17.226;2022-08-01T11:56:27;101244.52;;;25.08;57.25
44872;BME280;30602;51.060;17.226;2022-08-01T11:59:41;101245.91;;;25.17;56.60
44872;BME280;30602;51.060;17.226;2022-08-01T12:06:12;101242.34;;;25.59;55.10
44872;BME280;30602;51.060;17.226;2022-08-01T12:09:28;101243.66;;;25.75;54.30
44872;BME280;30602;51.060;17.226;2022-08-01T12:13:06;101235.35;;;25.61;54.12
44872;BME280;30602;51.060;17.226;2022-08-01T12:20:13;101231.12;;;25.71;54.47
44872;BME280;30602;51.060;17.226;2022-08-01T12:24:01;101236.61;;;25.81;53.84
44872;BME280;30602;51.060;17.226;2022-08-01T12:28:12;101231.31;;;25.80;52.55
44872;BME280;30602;51.060;17.226;2022-08-01T12:31:30;101232.00;;;25.82;52.81
44872;BME280;30602;51.060;17.226;2022-08-01T12:35:45;101231.29;;;25.89;53.80
44872;BME280;30602;51.060;17.226;2022-08-01T12:39:13;101225.87;;;25.97;54.08
44872;BME280;30602;51.060;17.226;2022-08-01T12:42:45;101222.15;;;26.13;52.93
44872;BME280;30602;51.060;17.226;2022-08-01T12:46:04;101218.95;;;26.19;52.65
44872;BME280;30602;51.060;17.226;2022-08-01T12:50:16;101215.05;;;26.44;53.71
44872;BME280;30602;51.060;17.226;2022-08-01T12:53:23;101218.60;;;26.55;51.94
44872;BME280;30602;51.060;17.226;2022-08-01T12:56:52;101214.84;;;26.24;51.43
44872;BME280;30602;51.060;17.226;2022-08-01T13:00:25;101221.91;;;26.10;52.32
44872;BME280;30602;51.060;17.226;2022-08-01T13:07:50;101227.18;;;25.69;52.75
44872;BME280;30602;51.060;17.226;2022-08-01T13:11:13;101226.16;;;25.61;52.02
44872;BME280;30602;51.060;17.226;2022-08-01T13:15:34;101225.37;;;25.93;52.26
44872;BME280;30602;51.060;17.226;2022-08-01T13:18:49;101216.36;;;25.86;51.66
44872;BME280;30602;51.060;17.226;2022-08-01T13:26:03;101223.72;;;25.90;51.65
44872;BME280;30602;51.060;17.226;2022-08-01T13:29:40;101225.05;;;25.90;52.62
44872;BME280;30602;51.060;17.226;2022-08-01T13:32:58;101225.73;;;25.89;52.84
44872;BME280;30602;51.060;17.226;2022-08-01T13:36:17;101220.52;;;26.13;52.40
44872;BME280;30602;51.060;17.226;2022-08-01T13:44:17;101226.09;;;26.46;51.00
44872;BME280;30602;51.060;17.226;2022-08-01T13:47:46;101222.41;;;26.79;50.68
44872;BME280;30602;51.060;17.226;2022-08-01T13:50:56;101224.91;;;26.84;51.14
44872;BME280;30602;51.060;17.226;2022-08-01T13:55:00;101218.47;;;26.96;50.77
44872;BME280;30602;51.060;17.226;2022-08-01T13:58:07;101229.63;;;26.71;50.78
44872;BME280;30602;51.060;17.226;2022-08-01T14:01:25;101231.16;;;26.48;52.07
44872;BME280;30602;51.060;17.226;2022-08-01T14:04:50;101219.70;;;26.15;51.74
44872;BME280;30602;51.060;17.226;2022-08-01T14:07:56;101228.46;;;26.14;53.37
44872;BME280;30602;51.060;17.226;2022-08-01T14:11:23;101236.59;;;26.10;52.89
44872;BME280;30602;51.060;17.226;2022-08-01T14:14:33;101236.68;;;25.93;52.87
44872;BME280;30602;51.060;17.226;2022-08-01T14:18:01;101235.77;;;25.77;54.41
44872;BME280;30602;51.060;17.226;2022-08-01T14:21:29;101220.41;;;25.76;53.06
44872;BME280;30602;51.060;17.226;2022-08-01T15:16:56;101245.12;;;26.45;49.23
44872;BME280;30602;51.060;17.226;2022-08-01T15:20:07;101246.58;;;26.54;49.34
44872;BME280;30602;51.060;17.226;2022-08-01T15:25:59;101245.35;;;26.66;49.72
44872;BME280;30602;51.060;17.226;2022-08-01T15:29:38;101244.94;;;26.52;49.60
44872;BME280;30602;51.060;17.226;2022-08-01T15:32:59;101245.81;;;26.18;49.43
44872;BME280;30602;51.060;17.226;2022-08-01T15:36:19;101247.99;;;25.99;50.64
44872;BME280;30602;51.060;17.226;2022-08-01T15:39:30;101243.77;;;26.03;50.93
44872;BME280;30602;51.060;17.226;2022-08-01T15:46:51;101248.31;;;26.05;51.40
44872;BME280;30602;51.060;17.226;2022-08-01T15:50:01;101248.13;;;26.29;50.63
44872;BME280;30602;51.060;17.226;2022-08-01T15:53:20;101251.78;;;26.35;51.84
44872;BME280;30602;51.060;17.226;2022-08-01T15:56:51;101258.03;;;26.22;51.07
44872;BME280;30602;51.060;17.226;2022-08-01T15:59:59;101273.34;;;25.97;52.70
44872;BME280;30602;51.060;17.226;2022-08-01T16:03:26;101270.39;;;25.62;54.20
44872;BME280;30602;51.060;17.226;2022-08-01T16:06:35;101285.23;;;25.29;55.19
44872;BME280;30602;51.060;17.226;2022-08-01T16:09:43;101296.74;;;25.12;55.92
44872;BME280;30602;51.060;17.226;2022-08-01T16:13:02;101293.02;;;24.94;56.94
44872;BME280;30602;51.060;17.226;2022-08-01T16:16:13;101307.40;;;24.88;57.06
44872;BME280;30602;51.060;17.226;2022-08-01T16:19:27;101304.61;;;24.75;57.76
44872;BME280;30602;51.060;17.226;2022-08-01T16:27:10;101310.18;;;24.73;58.31
44872;BME280;30602;51.060;17.226;2022-08-01T16:30:51;101313.17;;;24.62;58.98
44872;BME280;30602;51.060;17.226;2022-08-01T16:34:17;101322.56;;;24.36;60.18
44872;BME280;30602;51.060;17.226;2022-08-01T16:37:26;101314.05;;;24.12;60.54
44872;BME280;30602;51.060;17.226;2022-08-01T16:40:51;101307.48;;;24.00;61.37
44872;BME280;30602;51.060;17.226;2022-08-01T16:44:43;101318.55;;;24.13;61.76
44872;BME280;30602;51.060;17.226;2022-08-01T16:47:54;101316.89;;;24.06;61.75
44872;BME280;30602;51.060;17.226;2022-08-01T16:55:43;101324.48;;;23.91;60.37
44872;BME280;30602;51.060;17.226;2022-08-01T16:58:57;101323.43;;;23.84;60.19
44872;BME280;30602;51.060;17.226;2022-08-01T17:02:35;101325.52;;;23.73;61.36
44872;BME280;30602;51.060;17.226;2022-08-01T17:05:46;101332.54;;;23.51;62.71
44872;BME280;30602;51.060;17.226;2022-08-01T17:09:12;101335.42;;;23.36;63.49
44872;BME280;30602;51.060;17.226;2022-08-01T17:13:16;101340.83;;;23.33;63.75
44872;BME280;30602;51.060;17.226;2022-08-01T17:16:50;101349.79;;;23.18;63.98
44872;BME280;30602;51.060;17.226;2022-08-01T17:20:00;101352.46;;;23.05;63.72
44872;BME280;30602;51.060;17.226;2022-08-01T17:23:08;101339.46;;;22.89;63.80
44872;BME280;30602;51.060;17.226;2022-08-01T17:26:38;101361.13;;;22.82;63.77
44872;BME280;30602;51.060;17.226;2022-08-01T17:29:49;101368.77;;;22.68;64.03
44872;BME280;30602;51.060;17.226;2022-08-01T17:32:58;101370.05;;;22.55;64.82
44872;BME280;30602;51.060;17.226;2022-08-01T17:37:09;101374.27;;;22.53;64.97
44872;BME280;30602;51.060;17.226;2022-08-01T17:40:27;101378.43;;;22.53;64.85
44872;BME280;30602;51.060;17.226;2022-08-01T17:43:45;101385.66;;;22.45;65.47
44872;BME280;30602;51.060;17.226;2022-08-01T17:46:52;101389.34;;;22.35;66.39
44872;BME280;30602;51.060;17.226;2022-08-01T17:50:31;101399.10;;;22.28;66.86
44872;BME280;30602;51.060;17.226;2022-08-01T17:54:12;101385.20;;;22.11;67.47
44872;BME280;30602;51.060;17.226;2022-08-01T17:57:18;101407.37;;;22.13;68.14
44872;BME280;30602;51.060;17.226;2022-08-01T18:00:37;101413.52;;;22.07;68.66
44872;BME280;30602;51.060;17.226;2022-08-01T18:04:16;101404.51;;;22.12;68.92
44872;BME280;30602;51.060;17.226;2022-08-01T18:07:27;101406.15;;;22.14;69.03
44872;BME280;30602;51.060;17.226;2022-08-01T18:10:55;101406.44;;;22.00;69.73
44872;BME280;30602;51.060;17.226;2022-08-01T18:14:03;101414.61;;;21.91;70.46
44872;BME280;30602;51.060;17.226;2022-08-01T18:17:11;101419.22;;;21.83;71.00
44872;BME280;30602;51.060;17.226;2022-08-01T18:20:17;101418.55;;;21.75;71.63
44872;BME280;30602;51.060;17.226;2022-08-01T18:24:03;101417.17;;;21.63;72.21
44872;BME280;30602;51.060;17.226;2022-08-01T18:27:24;101418.73;;;21.63;72.68
44872;BME280;30602;51.060;17.226;2022-08-01T18:30:45;101418.56;;;21.56;73.52
44872;BME280;30602;51.060;17.226;2022-08-01T18:34:12;101421.70;;;21.58;74.11
44872;BME280;30602;51.060;17.226;2022-08-01T18:37:21;101428.87;;;21.48;75.21
44872;BME280;30602;51.060;17.226;2022-08-01T18:40:28;101423.91;;;21.48;75.47
44872;BME280;30602;51.060;17.226;2022-08-01T18:43:38;101435.06;;;21.39;76.54
44872;BME280;30602;51.060;17.226;2022-08-01T18:47:00;101444.37;;;21.32;77.06
44872;BME280;30602;51.060;17.226;2022-08-01T18:50:07;101448.44;;;21.18;78.35
44872;BME280;30602;51.060;17.226;2022-08-01T18:53:35;101442.98;;;21.06;78.71
44872;BME280;30602;51.060;17.226;2022-08-01T18:57:03;101464.78;;;21.03;79.79
44872;BME280;30602;51.060;17.226;2022-08-01T19:00:32;101471.96;;;20.86;80.85
44872;BME280;30602;51.060;17.226;2022-08-01T19:03:42;101472.67;;;20.84;81.28
44872;BME280;30602;51.060;17.226;2022-08-01T19:07:36;101480.89;;;20.81;81.82
44872;BME280;30602;51.060;17.226;2022-08-01T19:10:46;101482.73;;;20.79;82.31
44872;BME280;30602;51.060;17.226;2022-08-01T19:13:55;101488.95;;;20.71;82.52
44872;BME280;30602;51.060;17.226;2022-08-01T19:17:25;101497.54;;;20.70;83.34
44872;BME280;30602;51.060;17.226;2022-08-01T19:20:33;101505.20;;;20.67;82.94
44872;BME280;30602;51.060;17.226;2022-08-01T19:24:07;101511.68;;;20.67;82.96
44872;BME280;30602;51.060;17.226;2022-08-01T19:31:21;101515.21;;;20.55;83.52
44872;BME280;30602;51.060;17.226;2022-08-01T19:35:07;101516.59;;;20.43;84.15
44872;BME280;30602;51.060;17.226;2022-08-01T19:38:37;101517.40;;;20.35;84.46
44872;BME280;30602;51.060;17.226;2022-08-01T19:42:03;101524.98;;;20.26;84.89
44872;BME280;30602;51.060;17.226;2022-08-01T19:45:32;101533.95;;;20.21;85.23
44872;BME280;30602;51.060;17.226;2022-08-01T19:49:08;101528.16;;;20.20;85.19
44872;BME280;30602;51.060;17.226;2022-08-01T19:52:52;101527.58;;;20.09;85.57
44872;BME280;30602;51.060;17.226;2022-08-01T19:56:43;101527.42;;;20.11;85.19
44872;BME280;30602;51.060;17.226;2022-08-01T20:00:13;101527.80;;;20.08;85.37
44872;BME280;30602;51.060;17.226;2022-08-01T20:03:39;101531.64;;;20.09;85.39
44872;BME280;30602;51.060;17.226;2022-08-01T20:06:49;101535.31;;;20.15;85.75
44872;BME280;30602;51.060;17.226;2022-08-01T20:10:19;101536.13;;;20.12;85.49
44872;BME280;30602;51.060;17.226;2022-08-01T20:13:57;101537.32;;;20.14;86.04
44872;BME280;30602;51.060;17.226;2022-08-01T20:17:26;101541.23;;;20.11;85.91
44872;BME280;30602;51.060;17.226;2022-08-01T20:20:56;101539.97;;;20.06;85.93
44872;BME280;30602;51.060;17.226;2022-08-01T20:24:14;101527.69;;;20.02;86.06